Time;durP1;ratioP1;P1;durP2;ratioP2;P2;SDS_P1;SDS_P2;PMS_P1;PMS_P2;Temp;Humidity;BMP_temperature;BMP_pressure;BME280_temperature;BME280_humidity;BME280_pressure;Samples;Min_cycle;Max_cycle;Signal;HPM_P1;HPM_P2
2024/01/06 00:00:34;;;;;;;12.63;5.78;;;7.40;99.90;;;;;;5007515;28;20030;-57
2024/01/06 00:03:00;;;;;;;9.07;6.15;;;7.40;99.90;;;;;;5009913;28;20036;-53
2024/01/06 00:05:25;;;;;;;13.07;6.72;;;7.40;99.90;;;;;;5008744;28;20121;-53
2024/01/06 00:07:51;;;;;;;13.57;6.90;;;7.40;99.90;;;;;;5009191;28;20030;-56
2024/01/06 00:10:17;;;;;;;7.78;6.00;;;7.50;99.90;;;;;;5007015;28;20026;-57
2024/01/06 00:12:43;;;;;;;9.55;6.40;;;7.50;99.90;;;;;;5005437;28;20065;-57
2024/01/06 00:15:08;;;;;;;10.68;5.93;;;7.50;99.90;;;;;;5004306;28;20153;-57
2024/01/06 00:17:34;;;;;;;15.35;7.25;;;7.50;99.90;;;;;;5007344;28;20068;-57
2024/01/06 00:20:01;;;;;;;10.80;7.15;;;7.50;99.90;;;;;;5008049;28;20030;-56
2024/01/06 00:22:27;;;;;;;15.75;6.80;;;7.50;99.90;;;;;;5007504;28;20096;-57
2024/01/06 00:24:52;;;;;;;13.25;7.15;;;7.50;99.90;;;;;;5007255;28;20022;-54
2024/01/06 00:27:18;;;;;;;15.27;7.70;;;7.50;99.90;;;;;;5004855;28;20514;-54
2024/01/06 00:29:43;;;;;;;14.25;9.10;;;7.50;99.90;;;;;;5006928;28;20485;-54
2024/01/06 00:32:09;;;;;;;17.23;8.50;;;7.50;99.90;;;;;;5003046;28;20084;-57
2024/01/06 00:34:34;;;;;;;11.98;8.48;;;7.40;99.90;;;;;;5008426;28;20046;-54
2024/01/06 00:37:00;;;;;;;13.18;8.27;;;7.50;99.90;;;;;;5006562;28;20502;-55
2024/01/06 00:39:25;;;;;;;16.05;8.23;;;7.50;99.90;;;;;;4988419;28;20579;-57
2024/01/06 00:41:51;;;;;;;18.63;8.68;;;7.40;99.90;;;;;;5006468;28;20528;-57
2024/01/06 00:44:16;;;;;;;17.17;9.15;;;7.40;99.90;;;;;;5002057;28;20041;-57
2024/01/06 00:46:42;;;;;;;13.93;9.30;;;7.30;99.90;;;;;;5003443;28;20044;-57
2024/01/06 00:49:07;;;;;;;16.30;9.68;;;7.20;99.90;;;;;;5005228;28;20045;-55
2024/01/06 00:51:33;;;;;;;18.40;10.02;;;7.20;99.90;;;;;;5006608;28;20030;-57
2024/01/06 00:53:58;;;;;;;21.42;10.70;;;7.20;99.90;;;;;;5002818;28;20063;-57
2024/01/06 00:56:24;;;;;;;23.60;12.32;;;7.10;99.90;;;;;;5001226;28;20459;-55
2024/01/06 00:58:49;;;;;;;24.10;12.20;;;7.10;99.90;;;;;;5005793;28;20034;-57
2024/01/06 01:01:15;;;;;;;18.98;11.25;;;7.10;99.90;;;;;;5004612;28;20119;-55
2024/01/06 01:03:40;;;;;;;19.13;12.52;;;7.10;99.90;;;;;;5001933;28;20104;-54
2024/01/06 01:06:06;;;;;;;20.88;12.13;;;7.10;99.90;;;;;;5002286;28;20042;-57
2024/01/06 01:08:31;;;;;;;23.75;12.38;;;7.10;99.90;;;;;;5007594;28;20400;-55
2024/01/06 01:10:57;;;;;;;21.95;12.52;;;7.10;99.90;;;;;;5006027;28;20116;-57
2024/01/06 01:13:23;;;;;;;24.20;11.88;;;7.10;99.90;;;;;;5003904;28;20104;-55
2024/01/06 01:15:49;;;;;;;21.95;12.73;;;7.10;99.90;;;;;;5005718;28;20026;-57
2024/01/06 01:18:14;;;;;;;20.00;11.82;;;7.10;99.90;;;;;;5005642;28;20531;-58
2024/01/06 01:20:43;;;;;;;18.08;10.77;;;7.10;99.90;;;;;;5006915;28;20065;-58
2024/01/06 01:23:09;;;;;;;27.55;12.15;;;7.10;99.90;;;;;;4986538;28;20514;-57
2024/01/06 01:25:34;;;;;;;20.85;11.38;;;7.20;99.90;;;;;;5004237;28;20073;-55
2024/01/06 01:28:00;;;;;;;20.55;11.25;;;7.20;99.90;;;;;;5005022;28;20034;-55
2024/01/06 01:30:25;;;;;;;21.17;10.55;;;7.20;99.90;;;;;;5000116;28;20052;-53
2024/01/06 01:32:51;;;;;;;19.00;11.00;;;7.20;99.90;;;;;;5005329;28;20049;-57
2024/01/06 01:35:16;;;;;;;19.00;10.98;;;7.10;99.90;;;;;;5001204;28;20030;-57
2024/01/06 01:37:42;;;;;;;16.80;10.35;;;7.20;99.90;;;;;;5007483;28;20033;-55
2024/01/06 01:40:08;;;;;;;19.40;11.27;;;7.20;99.90;;;;;;5006474;28;20404;-57
2024/01/06 01:42:34;;;;;;;19.38;10.88;;;7.20;99.90;;;;;;5007830;28;20488;-56
2024/01/06 01:45:00;;;;;;;16.42;10.38;;;7.20;99.90;;;;;;5004453;28;20037;-57
2024/01/06 01:47:26;;;;;;;19.83;11.30;;;7.20;99.90;;;;;;5005828;28;20033;-56
2024/01/06 01:49:54;;;;;;;17.55;11.23;;;7.10;99.90;;;;;;5004889;28;20030;-53
2024/01/06 01:52:20;;;;;;;21.15;11.32;;;7.10;99.90;;;;;;5006133;28;20038;-57
2024/01/06 01:54:46;;;;;;;20.65;11.57;;;7.10;99.90;;;;;;5005106;28;20022;-57
2024/01/06 01:57:13;;;;;;;18.38;9.77;;;7.10;99.90;;;;;;5003084;28;20033;-56
2024/01/06 01:59:39;;;;;;;17.48;9.95;;;7.20;99.90;;;;;;5008405;28;20026;-57
2024/01/06 02:02:06;;;;;;;17.70;9.65;;;7.10;99.90;;;;;;5006782;28;20377;-57
2024/01/06 02:04:31;;;;;;;17.80;10.23;;;7.10;99.90;;;;;;5006700;28;20022;-58
2024/01/06 02:06:57;;;;;;;17.27;10.23;;;7.10;99.90;;;;;;5009070;28;20034;-57
2024/01/06 02:09:26;;;;;;;20.48;9.63;;;7.00;99.90;;;;;;5004765;28;20493;-57
2024/01/06 02:11:52;;;;;;;22.35;11.27;;;7.10;99.90;;;;;;5007798;28;20045;-57
2024/01/06 02:14:18;;;;;;;19.65;11.07;;;7.00;99.90;;;;;;5005476;28;20104;-57
2024/01/06 02:16:43;;;;;;;22.02;12.30;;;7.00;99.90;;;;;;5011246;28;20033;-57
2024/01/06 02:19:12;;;;;;;22.08;11.95;;;7.00;99.90;;;;;;5004850;28;20400;-57
2024/01/06 02:21:43;;;;;;;20.25;12.15;;;7.00;99.90;;;;;;5004781;28;20520;-57
2024/01/06 02:24:09;;;;;;;23.92;11.80;;;7.00;99.90;;;;;;5005331;28;20029;-57
2024/01/06 02:26:34;;;;;;;24.58;12.95;;;7.00;99.90;;;;;;5005647;28;20030;-57
2024/01/06 02:29:01;;;;;;;26.42;13.90;;;7.00;99.90;;;;;;5007075;28;20030;-56
2024/01/06 02:31:27;;;;;;;31.48;13.05;;;7.00;99.90;;;;;;5006921;28;20408;-54
2024/01/06 02:33:52;;;;;;;26.38;14.43;;;7.10;99.90;;;;;;5002576;28;20038;-53
2024/01/06 02:36:18;;;;;;;26.52;13.80;;;7.00;99.90;;;;;;5004359;28;20110;-57
2024/01/06 02:38:44;;;;;;;21.20;11.88;;;7.10;99.90;;;;;;5003382;28;20570;-57
2024/01/06 02:41:09;;;;;;;27.58;13.15;;;7.10;99.90;;;;;;5002873;28;20603;-52
2024/01/06 02:43:35;;;;;;;23.48;13.02;;;7.10;99.90;;;;;;5003194;28;20030;-56
2024/01/06 02:46:00;;;;;;;34.20;13.70;;;7.10;99.90;;;;;;5004054;28;20025;-56
2024/01/06 02:48:26;;;;;;;31.55;15.57;;;7.10;99.90;;;;;;5005879;28;20108;-56
2024/01/06 02:50:51;;;;;;;31.95;14.05;;;7.10;99.90;;;;;;5005736;28;20048;-54
2024/01/06 02:53:17;;;;;;;30.63;15.27;;;7.10;99.90;;;;;;5003402;28;20571;-56
2024/01/06 02:55:42;;;;;;;28.42;14.70;;;7.10;99.90;;;;;;5006360;28;20404;-57
2024/01/06 02:58:08;;;;;;;28.00;15.60;;;7.10;99.90;;;;;;5005954;28;20077;-57
2024/01/06 03:00:33;;;;;;;34.58;16.55;;;7.00;99.90;;;;;;5003939;28;20036;-55
2024/01/06 03:02:59;;;;;;;34.13;15.10;;;7.00;99.90;;;;;;5006326;28;20036;-57
2024/01/06 03:05:25;;;;;;;33.83;15.02;;;7.00;99.90;;;;;;5006893;28;20493;-57
2024/01/06 03:07:50;;;;;;;36.03;16.67;;;7.00;99.90;;;;;;5004957;28;20088;-54
2024/01/06 03:10:16;;;;;;;37.42;17.30;;;7.00;99.90;;;;;;5008806;28;20037;-55
2024/01/06 03:12:41;;;;;;;45.92;18.20;;;7.00;99.90;;;;;;5003682;28;20030;-56
2024/01/06 03:15:07;;;;;;;38.70;16.95;;;7.00;99.90;;;;;;5007229;28;20499;-57
2024/01/06 03:17:32;;;;;;;38.65;17.05;;;7.10;99.90;;;;;;5004313;28;20027;-57
2024/01/06 03:19:58;;;;;;;43.08;17.10;;;7.10;99.90;;;;;;5006223;28;20056;-56
2024/01/06 03:22:23;;;;;;;47.28;19.80;;;7.10;99.90;;;;;;5005911;28;20034;-54
2024/01/06 03:24:49;;;;;;;38.00;18.15;;;7.10;99.90;;;;;;5002125;28;20405;-57
2024/01/06 03:27:15;;;;;;;45.78;19.75;;;7.10;99.90;;;;;;5002280;28;20030;-55
2024/01/06 03:29:40;;;;;;;39.80;19.17;;;7.10;99.90;;;;;;5008659;28;20057;-54
2024/01/06 03:32:06;;;;;;;49.70;19.92;;;7.10;99.90;;;;;;5002851;28;20096;-53
2024/01/06 03:34:32;;;;;;;45.40;18.92;;;7.20;99.90;;;;;;5005800;28;20511;-54
2024/01/06 03:36:57;;;;;;;58.08;21.40;;;7.10;99.90;;;;;;5003683;28;20026;-54
2024/01/06 03:39:23;;;;;;;47.30;20.13;;;7.10;99.90;;;;;;5005104;28;20030;-56
2024/01/06 03:41:49;;;;;;;46.97;20.88;;;7.10;99.90;;;;;;5004422;28;20464;-57
2024/01/06 03:44:14;;;;;;;49.42;19.90;;;7.10;99.90;;;;;;5003987;28;20065;-56
2024/01/06 03:46:40;;;;;;;54.33;21.52;;;7.10;99.90;;;;;;5007834;28;20057;-56
2024/01/06 03:49:05;;;;;;;44.17;18.80;;;7.10;99.90;;;;;;5006076;28;20832;-56
2024/01/06 03:51:31;;;;;;;41.75;18.35;;;7.10;99.90;;;;;;5001389;28;20607;-56
2024/01/06 03:53:56;;;;;;;52.28;21.85;;;7.20;99.90;;;;;;5006389;28;20049;-54
2024/01/06 03:56:22;;;;;;;56.65;23.30;;;7.20;99.90;;;;;;5005582;28;20144;-56
2024/01/06 03:58:48;;;;;;;53.65;20.88;;;7.20;99.90;;;;;;5006443;28;20063;-54
2024/01/06 04:01:13;;;;;;;57.40;23.38;;;7.20;99.90;;;;;;5005671;28;20603;-56
2024/01/06 04:03:42;;;;;;;59.30;23.25;;;7.20;99.90;;;;;;5005095;28;20053;-57
2024/01/06 04:06:08;;;;;;;52.08;20.75;;;7.20;99.90;;;;;;5005038;28;20017;-56
2024/01/06 04:08:36;;;;;;;65.28;23.77;;;7.20;99.90;;;;;;5000251;28;20349;-56
2024/01/06 04:11:02;;;;;;;57.90;23.65;;;7.20;99.90;;;;;;5005477;28;20048;-57
2024/01/06 04:13:28;;;;;;;62.72;24.45;;;7.20;99.90;;;;;;5002072;28;20492;-57
2024/01/06 04:15:53;;;;;;;65.13;23.67;;;7.20;99.90;;;;;;5005438;28;20021;-56
2024/01/06 04:18:19;;;;;;;55.30;24.23;;;7.10;99.90;;;;;;5003888;28;20534;-56
2024/01/06 04:20:44;;;;;;;68.82;26.27;;;7.10;99.90;;;;;;4984733;28;20026;-55
2024/01/06 04:23:10;;;;;;;69.97;26.70;;;7.20;99.90;;;;;;5004518;28;20029;-58
2024/01/06 04:25:35;;;;;;;62.65;24.95;;;7.20;99.90;;;;;;5002708;28;20117;-57
2024/01/06 04:28:01;;;;;;;61.88;26.17;;;7.30;99.90;;;;;;5002335;28;20033;-58
2024/01/06 04:30:27;;;;;;;75.03;28.35;;;7.30;99.90;;;;;;5004412;28;20496;-53
2024/01/06 04:32:52;;;;;;;59.83;25.52;;;7.30;99.90;;;;;;5005830;28;20447;-56
2024/01/06 04:35:19;;;;;;;63.60;26.77;;;7.20;99.90;;;;;;5003013;28;20036;-56
2024/01/06 04:37:45;;;;;;;73.13;26.90;;;7.30;99.90;;;;;;5003470;28;20100;-54
2024/01/06 04:40:11;;;;;;;64.18;24.35;;;7.20;99.90;;;;;;5005956;28;20117;-56
2024/01/06 04:42:36;;;;;;;63.92;27.17;;;7.30;99.90;;;;;;5005639;28;20588;-56
2024/01/06 04:45:02;;;;;;;67.85;26.48;;;7.30;99.90;;;;;;5002800;28;20038;-55
2024/01/06 04:47:30;;;;;;;78.05;28.52;;;7.30;99.90;;;;;;5002357;28;20109;-54
2024/01/06 04:49:56;;;;;;;69.50;27.10;;;7.30;99.90;;;;;;5003713;28;20060;-55
2024/01/06 04:52:21;;;;;;;74.57;28.92;;;7.30;99.90;;;;;;5001634;28;20435;-57
2024/01/06 04:54:47;;;;;;;77.30;29.13;;;7.30;99.90;;;;;;5004662;28;20041;-58
2024/01/06 04:57:12;;;;;;;80.03;29.73;;;7.30;99.90;;;;;;5001086;28;20030;-56
2024/01/06 04:59:38;;;;;;;81.32;32.03;;;7.30;99.90;;;;;;5002768;28;20037;-57
2024/01/06 05:02:04;;;;;;;76.68;27.02;;;7.30;99.90;;;;;;5004701;28;20022;-57
2024/01/06 05:04:32;;;;;;;77.63;29.00;;;7.30;99.90;;;;;;5001861;28;20030;-56
2024/01/06 05:06:57;;;;;;;77.20;30.52;;;7.30;99.90;;;;;;5005630;28;20040;-56
2024/01/06 05:09:23;;;;;;;76.70;30.85;;;7.30;99.90;;;;;;5001066;28;20411;-54
2024/01/06 05:11:48;;;;;;;84.00;31.20;;;7.30;99.90;;;;;;5003656;28;20068;-54
2024/01/06 05:14:14;;;;;;;86.97;31.42;;;7.30;99.90;;;;;;5001766;28;20022;-54
2024/01/06 05:16:40;;;;;;;78.63;30.65;;;7.30;99.90;;;;;;5002634;28;20042;-55
2024/01/06 05:19:05;;;;;;;85.32;32.05;;;7.30;99.90;;;;;;5000802;28;20025;-55
2024/01/06 05:21:31;;;;;;;88.95;33.08;;;7.30;99.90;;;;;;5000028;28;20447;-57
2024/01/06 05:23:56;;;;;;;86.55;30.65;;;7.40;99.90;;;;;;5003371;28;20029;-57
2024/01/06 05:26:22;;;;;;;90.07;32.13;;;7.40;99.90;;;;;;5005799;28;20075;-54
2024/01/06 05:28:48;;;;;;;85.95;32.38;;;7.40;99.90;;;;;;5002765;28;20046;-56
2024/01/06 05:31:13;;;;;;;84.70;31.92;;;7.40;99.90;;;;;;5003229;28;20030;-54
2024/01/06 05:33:39;;;;;;;77.13;28.65;;;7.30;99.90;;;;;;5001016;28;20492;-56
2024/01/06 05:36:05;;;;;;;65.18;23.67;;;7.20;99.90;;;;;;5002491;28;20033;-54
2024/01/06 05:38:30;;;;;;;52.92;20.35;;;7.10;99.90;;;;;;5000630;28;20050;-56
2024/01/06 05:40:56;;;;;;;52.72;20.10;;;6.90;99.90;;;;;;5002856;28;20041;-54
2024/01/06 05:43:21;;;;;;;51.03;19.67;;;6.70;99.90;;;;;;5001553;28;20045;-54
2024/01/06 05:45:47;;;;;;;56.88;19.73;;;6.60;99.90;;;;;;5001478;28;20068;-57
2024/01/06 05:48:13;;;;;;;46.03;18.05;;;6.50;99.90;;;;;;5000643;28;20026;-56
2024/01/06 05:50:39;;;;;;;45.78;17.73;;;6.40;99.90;;;;;;5004383;28;20412;-56
2024/01/06 05:53:05;;;;;;;46.65;17.88;;;6.40;99.90;;;;;;5004623;28;20053;-56
2024/01/06 05:55:31;;;;;;;51.30;19.10;;;6.40;99.90;;;;;;5002234;28;20030;-56
2024/01/06 05:57:56;;;;;;;46.03;16.35;;;6.30;99.90;;;;;;5004886;28;20033;-54
2024/01/06 06:00:22;;;;;;;49.83;17.98;;;6.30;99.90;;;;;;5007396;28;20033;-56
2024/01/06 06:02:48;;;;;;;51.47;17.30;;;6.30;99.90;;;;;;5006974;28;20033;-55
2024/01/06 06:05:13;;;;;;;48.05;17.50;;;6.20;99.90;;;;;;5007038;28;20049;-56
2024/01/06 06:07:39;;;;;;;50.97;17.50;;;6.20;99.90;;;;;;5006559;28;20049;-57
2024/01/06 06:10:07;;;;;;;43.60;15.70;;;6.20;99.90;;;;;;5005657;28;20377;-56
2024/01/06 06:12:32;;;;;;;48.45;16.63;;;6.20;99.90;;;;;;5006517;28;20061;-57
2024/01/06 06:14:58;;;;;;;40.30;14.52;;;6.20;99.90;;;;;;5007562;28;20057;-57
2024/01/06 06:17:23;;;;;;;41.00;14.55;;;6.20;99.90;;;;;;5004438;28;20045;-57
2024/01/06 06:19:49;;;;;;;38.97;14.43;;;6.10;99.90;;;;;;5007496;28;20022;-57
2024/01/06 06:22:14;;;;;;;35.53;12.65;;;6.00;99.90;;;;;;5006519;28;20048;-54
2024/01/06 06:24:40;;;;;;;31.42;12.38;;;6.00;99.90;;;;;;5003407;28;20105;-54
2024/01/06 06:27:05;;;;;;;34.90;12.27;;;5.90;99.90;;;;;;5004473;28;20031;-56
2024/01/06 06:29:31;;;;;;;29.52;9.90;;;5.90;99.90;;;;;;5005363;28;20026;-52
2024/01/06 06:31:56;;;;;;;26.42;11.02;;;5.90;99.90;;;;;;5006712;28;20037;-54
2024/01/06 06:34:22;;;;;;;32.97;11.75;;;5.80;99.90;;;;;;4999361;28;20033;-54
2024/01/06 06:36:48;;;;;;;40.13;12.25;;;5.80;99.90;;;;;;5002285;28;20030;-57
2024/01/06 06:39:13;;;;;;;36.58;11.90;;;5.80;99.90;;;;;;5001974;28;20038;-55
2024/01/06 06:41:39;;;;;;;31.13;10.95;;;5.80;99.90;;;;;;5006965;28;20064;-55
2024/01/06 06:44:04;;;;;;;30.77;11.18;;;5.80;99.90;;;;;;5002432;28;20396;-56
2024/01/06 06:46:30;;;;;;;27.08;11.38;;;5.80;99.90;;;;;;5008797;28;20033;-55
2024/01/06 06:48:56;;;;;;;30.83;11.00;;;5.80;99.90;;;;;;5006739;28;20022;-54
2024/01/06 06:51:24;;;;;;;35.25;12.60;;;5.80;99.90;;;;;;5010350;28;20033;-57
2024/01/06 06:53:50;;;;;;;34.65;11.98;;;5.80;99.90;;;;;;5008824;28;20029;-57
2024/01/06 06:56:17;;;;;;;28.48;10.68;;;5.80;99.90;;;;;;5010475;28;20026;-55
2024/01/06 06:58:42;;;;;;;32.53;12.60;;;5.80;99.90;;;;;;5002040;28;20021;-55
2024/01/06 07:01:08;;;;;;;32.72;12.32;;;5.80;99.90;;;;;;5004026;28;20444;-54
2024/01/06 07:03:33;;;;;;;33.38;13.55;;;5.80;99.90;;;;;;5002990;28;20076;-55
2024/01/06 07:05:59;;;;;;;32.97;12.95;;;5.80;99.90;;;;;;5006935;28;20100;-56
2024/01/06 07:08:24;;;;;;;37.75;12.25;;;5.80;99.90;;;;;;5005255;28;20061;-56
2024/01/06 07:10:50;;;;;;;35.28;13.32;;;5.80;99.90;;;;;;5007393;28;20030;-54
2024/01/06 07:13:15;;;;;;;35.45;12.60;;;5.80;99.90;;;;;;5006747;28;20037;-54
2024/01/06 07:15:41;;;;;;;41.00;13.57;;;5.80;99.90;;;;;;5006629;28;20038;-54
2024/01/06 07:18:07;;;;;;;38.67;14.90;;;5.90;99.90;;;;;;5005096;28;20022;-54
2024/01/06 07:20:32;;;;;;;36.00;13.80;;;5.80;99.90;;;;;;5006861;28;20026;-57
2024/01/06 07:22:58;;;;;;;39.30;14.27;;;5.80;99.90;;;;;;5002911;28;20416;-56
2024/01/06 07:25:23;;;;;;;35.67;12.73;;;5.90;99.90;;;;;;5005063;28;20041;-53
2024/01/06 07:27:49;;;;;;;41.80;14.65;;;5.80;99.90;;;;;;5004119;28;20424;-55
2024/01/06 07:30:14;;;;;;;41.15;14.95;;;5.80;99.90;;;;;;5009068;28;20029;-53
2024/01/06 07:32:40;;;;;;;39.22;14.35;;;5.80;99.90;;;;;;5005370;28;20026;-55
2024/01/06 07:35:06;;;;;;;35.28;13.30;;;5.80;99.90;;;;;;4998638;28;20065;-54
2024/01/06 07:37:32;;;;;;;33.22;12.90;;;5.80;99.90;;;;;;5004006;28;20018;-55
2024/01/06 07:39:57;;;;;;;31.13;12.80;;;5.80;99.90;;;;;;5007795;28;20480;-55
2024/01/06 07:42:23;;;;;;;36.17;14.32;;;5.80;99.90;;;;;;5005290;28;20048;-54
2024/01/06 07:44:49;;;;;;;42.50;15.50;;;5.70;99.90;;;;;;5007877;28;20038;-53
2024/01/06 07:47:14;;;;;;;41.17;15.05;;;5.70;99.90;;;;;;4988673;28;20026;-53
2024/01/06 07:49:40;;;;;;;38.05;14.02;;;5.70;99.90;;;;;;5001998;28;20105;-54
2024/01/06 07:52:05;;;;;;;38.88;15.68;;;5.70;99.90;;;;;;5007226;28;20078;-56
2024/01/06 07:54:31;;;;;;;38.80;12.80;;;5.70;99.90;;;;;;5007145;28;20080;-52
2024/01/06 07:56:56;;;;;;;35.42;13.73;;;5.60;99.90;;;;;;5007410;28;20027;-56
2024/01/06 07:59:22;;;;;;;36.35;12.68;;;5.70;99.90;;;;;;5007273;28;20029;-57
2024/01/06 08:01:48;;;;;;;33.65;13.05;;;5.60;99.90;;;;;;5004007;28;20084;-55
2024/01/06 08:04:13;;;;;;;44.95;15.10;;;5.70;99.90;;;;;;5004884;28;20030;-55
2024/01/06 08:06:39;;;;;;;39.40;14.25;;;5.70;99.90;;;;;;5003635;28;20034;-54
2024/01/06 08:09:04;;;;;;;35.83;13.25;;;5.70;99.90;;;;;;5007004;28;20037;-55
2024/01/06 08:11:30;;;;;;;36.00;14.40;;;5.70;99.90;;;;;;5007760;28;20399;-56
2024/01/06 08:13:55;;;;;;;39.90;15.43;;;5.70;99.90;;;;;;5003690;28;20072;-55
2024/01/06 08:16:21;;;;;;;39.60;14.48;;;5.80;99.90;;;;;;5002928;28;20519;-56
2024/01/06 08:18:47;;;;;;;34.05;13.65;;;5.70;99.90;;;;;;5007180;28;20041;-54
2024/01/06 08:21:12;;;;;;;37.30;14.05;;;5.70;99.90;;;;;;5008332;28;20153;-53
2024/01/06 08:23:38;;;;;;;41.40;15.38;;;5.70;99.90;;;;;;5003897;28;20046;-53
2024/01/06 08:26:05;;;;;;;42.42;15.75;;;5.80;99.90;;;;;;5005144;28;20132;-55
2024/01/06 08:28:30;;;;;;;38.33;14.32;;;5.70;99.90;;;;;;5008126;28;20033;-56
2024/01/06 08:30:56;;;;;;;40.65;15.73;;;5.80;99.90;;;;;;5008003;28;20052;-57
2024/01/06 08:33:21;;;;;;;40.03;13.95;;;5.70;99.90;;;;;;5005673;28;20034;-56
2024/01/06 08:35:48;;;;;;;39.45;14.10;;;5.70;99.90;;;;;;5006657;28;20116;-55
2024/01/06 08:38:14;;;;;;;37.28;13.88;;;5.70;99.90;;;;;;5002095;28;20029;-56
2024/01/06 08:40:39;;;;;;;39.58;14.93;;;5.80;99.90;;;;;;5003549;28;20049;-54
2024/01/06 08:43:06;;;;;;;42.20;14.73;;;5.80;99.90;;;;;;5000085;28;20475;-57
2024/01/06 08:45:31;;;;;;;40.45;14.18;;;5.80;99.90;;;;;;5007346;28;20053;-57
2024/01/06 08:47:57;;;;;;;43.85;15.35;;;5.80;99.90;;;;;;5003238;28;20489;-57
2024/01/06 08:50:22;;;;;;;39.40;14.40;;;5.80;99.90;;;;;;5004917;28;20037;-54
2024/01/06 08:52:48;;;;;;;38.45;14.43;;;5.80;99.90;;;;;;5008372;28;20124;-55
2024/01/06 08:55:13;;;;;;;40.83;15.35;;;5.80;99.90;;;;;;5005758;28;20389;-57
2024/01/06 08:57:39;;;;;;;40.67;14.90;;;5.80;99.90;;;;;;5005409;28;20041;-53
2024/01/06 09:00:05;;;;;;;36.80;14.40;;;5.70;99.90;;;;;;5006612;28;20058;-55
2024/01/06 09:02:31;;;;;;;34.60;12.82;;;5.70;99.90;;;;;;5005610;28;20025;-54
2024/01/06 09:04:56;;;;;;;39.17;14.38;;;5.80;99.90;;;;;;5004736;28;20456;-54
2024/01/06 09:07:22;;;;;;;39.08;15.40;;;5.80;99.90;;;;;;5003361;28;20040;-55
2024/01/06 09:09:47;;;;;;;43.97;14.43;;;5.80;99.90;;;;;;5005937;28;20068;-55
2024/01/06 09:12:13;;;;;;;44.92;16.33;;;5.80;99.90;;;;;;5007103;28;20104;-55
2024/01/06 09:14:38;;;;;;;33.13;12.98;;;5.80;99.90;;;;;;5005718;28;20377;-56
2024/01/06 09:17:04;;;;;;;35.83;14.68;;;5.90;99.90;;;;;;5003233;28;20025;-56
2024/01/06 09:19:30;;;;;;;39.05;15.80;;;5.90;99.90;;;;;;5004463;28;20032;-56
2024/01/06 09:21:56;;;;;;;44.80;16.15;;;6.00;99.90;;;;;;5005182;28;20036;-54
2024/01/06 09:24:22;;;;;;;41.47;15.05;;;5.90;99.90;;;;;;5000743;28;20030;-53
2024/01/06 09:26:49;;;;;;;44.58;16.17;;;5.90;99.90;;;;;;5008411;28;20061;-57
2024/01/06 09:29:16;;;;;;;42.10;14.75;;;5.90;99.90;;;;;;5003664;28;20420;-55
2024/01/06 09:31:41;;;;;;;38.63;14.60;;;5.90;99.90;;;;;;5006195;28;20029;-56
2024/01/06 09:34:09;;;;;;;39.50;15.18;;;5.90;99.90;;;;;;5000140;28;20483;-55
2024/01/06 09:36:35;;;;;;;41.03;14.48;;;5.90;99.90;;;;;;5004517;28;20022;-54
2024/01/06 09:39:01;;;;;;;42.42;14.73;;;5.80;99.90;;;;;;5007222;28;20030;-55
2024/01/06 09:41:27;;;;;;;37.70;13.93;;;5.90;99.90;;;;;;5003903;28;20108;-53
2024/01/06 09:43:52;;;;;;;37.03;14.43;;;5.80;99.90;;;;;;5006031;28;20052;-56
2024/01/06 09:46:31;;;;;;;41.92;14.30;;;5.90;99.90;;;;;;5004913;28;20567;-55
2024/01/06 09:48:58;;;;;;;38.92;15.85;;;5.90;99.90;;;;;;5008608;28;20091;-56
2024/01/06 09:51:25;;;;;;;43.78;14.70;;;5.90;99.90;;;;;;4995508;28;20034;-52
2024/01/06 09:53:59;;;;;;;47.78;16.15;;;5.80;99.90;;;;;;4998039;28;20037;-55
2024/01/06 09:56:29;;;;;;;35.97;14.48;;;5.80;99.90;;;;;;5004524;28;20030;-54
2024/01/06 09:58:55;;;;;;;37.28;14.30;;;5.80;99.90;;;;;;5002883;28;20026;-54
2024/01/06 10:01:21;;;;;;;31.10;13.35;;;5.70;99.90;;;;;;4997584;28;20027;-55
2024/01/06 10:03:48;;;;;;;34.75;13.00;;;5.70;99.90;;;;;;5006137;28;20072;-56
2024/01/06 10:06:15;;;;;;;36.55;14.65;;;5.60;99.90;;;;;;5005806;28;20080;-56
2024/01/06 10:08:43;;;;;;;34.75;13.77;;;5.70;99.90;;;;;;5001385;28;20030;-55
2024/01/06 10:11:09;;;;;;;32.60;12.82;;;5.70;99.90;;;;;;4987989;28;20057;-55
2024/01/06 10:13:35;;;;;;;36.50;14.77;;;5.70;99.90;;;;;;5001379;28;20141;-54
2024/01/06 10:16:01;;;;;;;32.53;13.07;;;5.70;99.90;;;;;;5005805;28;20105;-54
2024/01/06 10:18:29;;;;;;;35.08;13.00;;;5.80;99.90;;;;;;5008551;28;20026;-58
2024/01/06 10:20:55;;;;;;;27.95;12.77;;;5.80;99.90;;;;;;5005334;28;20513;-59
2024/01/06 10:23:23;;;;;;;29.92;12.50;;;5.70;99.90;;;;;;5009009;28;20030;-56
2024/01/06 10:25:52;;;;;;;29.08;12.52;;;5.70;99.90;;;;;;5004067;28;20042;-57
2024/01/06 10:28:17;;;;;;;30.52;11.82;;;5.70;99.90;;;;;;5009620;28;20041;-54
2024/01/06 10:30:43;;;;;;;30.75;11.82;;;5.70;99.90;;;;;;5003704;28;20030;-55
2024/01/06 10:33:10;;;;;;;26.73;11.13;;;5.70;99.90;;;;;;5008078;28;20018;-52
2024/01/06 10:35:36;;;;;;;29.58;12.07;;;5.70;99.90;;;;;;5005010;28;20041;-52
2024/01/06 10:38:03;;;;;;;31.48;12.05;;;5.70;99.90;;;;;;5007339;28;20506;-55
2024/01/06 10:40:29;;;;;;;28.55;11.80;;;5.70;99.90;;;;;;5004353;28;20507;-56
2024/01/06 10:42:57;;;;;;;29.35;11.20;;;5.70;99.90;;;;;;5008382;28;20058;-54
2024/01/06 10:45:23;;;;;;;24.08;11.80;;;5.70;99.90;;;;;;5005656;28;20508;-54
2024/01/06 10:47:49;;;;;;;32.22;12.30;;;5.80;99.90;;;;;;5000878;28;20117;-55
2024/01/06 10:50:17;;;;;;;29.10;11.70;;;5.70;99.90;;;;;;5008637;28;20033;-55
2024/01/06 10:52:43;;;;;;;22.88;10.05;;;5.70;99.90;;;;;;5006157;28;20048;-57
2024/01/06 10:55:09;;;;;;;22.77;9.88;;;5.70;99.90;;;;;;5008153;28;20061;-54
2024/01/06 10:57:38;;;;;;;23.65;9.60;;;5.70;99.90;;;;;;5007274;28;20045;-54
2024/01/06 11:00:05;;;;;;;27.70;10.40;;;5.60;99.90;;;;;;5004402;28;20049;-55
2024/01/06 11:02:31;;;;;;;29.35;10.98;;;5.70;99.90;;;;;;5008489;28;20025;-56
2024/01/06 11:04:57;;;;;;;23.70;9.98;;;5.70;99.90;;;;;;5006982;28;20033;-54
2024/01/06 11:07:25;;;;;;;27.92;12.32;;;5.60;99.90;;;;;;5004859;28;20026;-54
2024/01/06 11:10:09;;;;;;;27.30;11.48;;;5.60;99.90;;;;;;5003622;28;20037;-56
2024/01/06 11:12:34;;;;;;;27.08;10.77;;;5.60;99.90;;;;;;5000898;28;20045;-56
2024/01/06 11:15:00;;;;;;;23.80;10.23;;;5.70;99.90;;;;;;5000750;28;20081;-56
2024/01/06 11:17:58;;;;;;;30.13;11.65;;;5.60;99.90;;;;;;5003426;28;20026;-54
2024/01/06 11:20:27;;;;;;;27.45;11.25;;;5.60;99.90;;;;;;5003942;28;20018;-53
2024/01/06 11:22:52;;;;;;;31.38;11.73;;;5.70;99.90;;;;;;5003902;28;20025;-55
2024/01/06 11:25:20;;;;;;;34.33;11.40;;;5.70;99.90;;;;;;5005885;28;20116;-56
2024/01/06 11:27:48;;;;;;;31.27;10.07;;;5.70;99.90;;;;;;5000503;28;20084;-55
2024/01/06 11:30:24;;;;;;;28.00;10.45;;;5.70;99.90;;;;;;5007280;28;20050;-55
2024/01/06 11:32:53;;;;;;;31.58;11.63;;;5.70;99.90;;;;;;5004530;28;20049;-55
2024/01/06 11:35:19;;;;;;;29.48;11.27;;;5.70;99.90;;;;;;5005346;28;20032;-54
2024/01/06 11:37:45;;;;;;;27.63;11.68;;;5.70;99.90;;;;;;5000139;28;20073;-56
2024/01/06 11:40:25;;;;;;;28.52;12.68;;;5.70;99.90;;;;;;5004013;28;20049;-52
2024/01/06 11:43:11;;;;;;;25.67;11.80;;;5.70;99.90;;;;;;5009155;28;20026;-53
2024/01/06 11:45:40;;;;;;;36.85;15.00;;;5.70;99.90;;;;;;5005965;28;20041;-53
2024/01/06 11:48:11;;;;;;;26.35;11.45;;;5.60;99.90;;;;;;5004909;28;20180;-56
2024/01/06 11:50:38;;;;;;;30.08;11.93;;;5.60;99.90;;;;;;5001400;28;20104;-55
2024/01/06 11:53:05;;;;;;;27.65;12.65;;;5.60;99.90;;;;;;4990644;28;20033;-56
2024/01/06 11:55:31;;;;;;;29.90;11.80;;;5.70;99.90;;;;;;5002967;28;20055;-56
2024/01/06 11:58:01;;;;;;;32.53;12.95;;;5.70;99.90;;;;;;5004775;28;20503;-56
2024/01/06 12:00:27;;;;;;;29.05;12.48;;;5.70;99.90;;;;;;5006678;28;20518;-55
2024/01/06 12:03:00;;;;;;;32.00;13.25;;;5.80;99.90;;;;;;5002630;28;20030;-57
2024/01/06 12:05:26;;;;;;;30.08;12.57;;;5.70;99.90;;;;;;5005898;28;20127;-56
2024/01/06 12:07:59;;;;;;;25.08;10.82;;;5.70;99.90;;;;;;5006393;28;20500;-54
2024/01/06 12:10:27;;;;;;;26.80;10.32;;;5.70;99.90;;;;;;5004847;28;20467;-53
2024/01/06 12:13:05;;;;;;;28.08;11.48;;;5.60;99.90;;;;;;5005574;28;20030;-56
2024/01/06 12:15:32;;;;;;;30.75;12.90;;;5.70;99.90;;;;;;5003997;28;20026;-53
2024/01/06 12:17:58;;;;;;;29.17;12.43;;;5.60;99.90;;;;;;5008497;28;20037;-52
2024/01/06 12:20:25;;;;;;;34.22;12.02;;;5.60;99.90;;;;;;5006255;28;20051;-54
2024/01/06 12:22:55;;;;;;;27.10;11.13;;;5.60;99.90;;;;;;5008765;28;20037;-54
2024/01/06 12:25:25;;;;;;;30.73;12.63;;;5.60;99.90;;;;;;5003113;28;20042;-59
2024/01/06 12:27:52;;;;;;;33.97;12.18;;;5.60;99.90;;;;;;5007592;28;20026;-58
2024/01/06 12:30:20;;;;;;;30.70;11.18;;;5.60;99.90;;;;;;5004978;28;20404;-53
2024/01/06 12:32:48;;;;;;;29.52;11.57;;;5.60;99.90;;;;;;5005390;28;20029;-52